sim
Sign-in with your pilot id or email,
or register
Callsign
Passwort

Schedule Details

Flight Number: DLH2162
Departure: Munich Airport (EDDM) at 18:10
Arrival: Nuremberg Airport (EDDN) at 18:45
Route: Lufthansa Passenger Schedule. Enter filed route here before submitting Pirep.

Weather Information
Getting current METAR information for EDDM 240720Z 24008KT 9999 FEW035 BKN080 15/13 Q1010 NOSIG
Getting current METAR information for EDDN 240720Z 19005KT 160V220 9999 FEW035 SCT043 16/13 Q1008 BECMG 24008KT

Schedule Frequency

Route Map